• Join FlightAware (Why Join?)
  • Login
  • US Flag 
09:45AM EDT


 

Airport Tracker/Info


-or-


 

Live Flight TrackerFlight Track Log ✈ OPT732 ✈ 06-May-2013 ✈ KBUR - KSJC

Flight Track Log - Related Links

Times and Time Zones

All times are in EDT time to prevent confusion due to time zone crossing. See the OPT732 flight status page for this flight to view local times or setup timezone preferences in your user account.

Time Position Orientation Groundspeed Altitude Reporting Facility
EDT Latitude Longitude Course Direction KTS MPH feet Rate Location/Type
01:46PM 34.1983 -118.4486 319° Northwest 252 290 7,800  Level Los Angeles Center
01:47PM 34.2661 -118.4925 332° Northwest 273 314 10,400 2,220 Climbing Los Angeles Center
01:49PM 34.3044 -118.6029 331° Northwest  Level FlightAware Approximate
01:49PM 34.4178 -118.5972 331° Northwest 328 377 14,700  Level Los Angeles Center
01:51PM 34.6537 -118.8462 319° Northwest  Level Estimated
01:51PM 34.5908 -118.7175 330° Northwest 360 414 19,700  Level Los Angeles Center
01:52PM 34.7011 -118.7917 331° Northwest 376 433 23,600 3,300 Climbing Los Angeles Center
01:53PM 34.7914 -118.8536 331° Northwest 373 429 26,600 2,820 Climbing Los Angeles Center
01:54PM 34.8947 -118.9361 327° Northwest 386 444 29,500 1,080 Climbing Los Angeles Center
01:56PM 35.0154 -119.0295 326° Northwest  Level FlightAware Approximate
01:56PM 35.0914 -119.1203 326° Northwest 468 539 30,000  Level Los Angeles Center
01:57PM 35.1586 -119.2606 300° West 480 552 30,000  Level Los Angeles Center
01:58PM 35.2275 -119.4000 301° West 478 550 30,000  Level Los Angeles Center
01:59PM 35.3075 -119.5664 301° West 476 548 30,000  Level Los Angeles Center
02:01PM 35.4022 -119.7606 301° West 481 554 30,000  Level Oakland Center
02:02PM 35.4700 -119.9019 301° West 485 558 30,000  Level Oakland Center
02:03PM 35.5392 -120.0439 301° West 488 562 30,000  Level Oakland Center
02:04PM 35.6206 -120.2150 300° West 492 566 30,000  Level Oakland Center
02:05PM 35.6878 -120.3583 300° West 492 566 30,000  Level Oakland Center
02:07PM 35.8136 -120.5814 305° West 503 579 30,000 -420 Level Los Angeles Center
02:08PM 35.9039 -120.7119 311° West 505 581 28,900 -1,500 Descending Los Angeles Center
02:09PM 35.9947 -120.8267 314° West 487 560 26,900 -1,980 Descending Los Angeles Center
02:09PM 36.0300 -120.8678 317° Northwest 465 535 26,200 -1,860 Descending Oakland Center
02:10PM 36.1194 -120.9822 314° West 462 532 24,300 -1,920 Descending Oakland Center
02:11PM 36.2292 -121.1269 313° West 477 549 22,300 -1,440 Descending Oakland Center
02:13PM 36.4167 -121.3667 314° West 445 512 19,800 -1,260 Descending Northern Cal TRACON
02:14PM 36.4825 -121.4572 312° West 422 486 18,500 -2,040 Descending Oakland Center
02:17PM 36.6011 -121.5511 321° Northwest  Level FlightAware Approximate
02:17PM 36.7833 -121.6500 321° Northwest 417 480 12,000  Level Northern Cal TRACON
02:18PM 36.8833 -121.7000 338° Northwest 327 376 10,300 -2,100 Descending Northern Cal TRACON
02:19PM 36.9500 -121.7500 329° Northwest 283 326 7,800 -2,160 Descending Northern Cal TRACON
02:20PM 37.0167 -121.8000 329° Northwest 280 322 6,000 -900 Descending Northern Cal TRACON
02:21PM 37.0833 -121.8500 329° Northwest 279 321 6,100  Climbing Northern Cal TRACON
02:22PM 37.1711 -121.8983 336° Northwest 287 330 6,000 -900 Descending Oakland Center
02:24PM 37.3000 -121.9833 332° Northwest 271 312 3,500 -1,080 Descending Northern Cal TRACON
02:25PM 37.3500 -122.0333 322° Northwest 226 260 3,100 -420 Descending Northern Cal TRACON
02:25PM 37.3503 -122.0422 272° West 245 282 3,000 -300 Descending Oakland Center
02:27PM 37.3627 -121.9291 North  Level Estimated
02:27PM 37.4167 -122.0333 North 196 226 2,600  Level Northern Cal TRACON
02:28PM 37.4000 -121.9833 113° Southeast 152 175 1,400 -1,200 Descending Northern Cal TRACON
02:29PM 37.3833 -121.9500 122° Southeast 122 140 400 19,020 Descending Northern Cal TRACON
02:29PM 37.3681 -121.9342 141° Southeast 136 157 30,000 49,320 Climbing Oakland Center
02:31PM 37.3627 -121.9291 North  Level Estimated